sensor_id;sensor_type;location;lat;lon;timestamp;temperature;humidity
21906;DHT22;11117;48.644;9.006;2024-03-08T00:01:48;3.20;99.90
21906;DHT22;11117;48.644;9.006;2024-03-08T00:04:14;3.20;99.90
21906;DHT22;11117;48.644;9.006;2024-03-08T00:06:39;3.10;99.90
21906;DHT22;11117;48.644;9.006;2024-03-08T00:09:05;3.10;99.90
21906;DHT22;11117;48.644;9.006;2024-03-08T00:11:30;3.00;99.90
21906;DHT22;11117;48.644;9.006;2024-03-08T00:13:56;3.10;99.90
21906;DHT22;11117;48.644;9.006;2024-03-08T00:16:21;3.00;99.90
21906;DHT22;11117;48.644;9.006;2024-03-08T00:18:47;3.00;99.90
21906;DHT22;11117;48.644;9.006;2024-03-08T00:21:12;3.00;99.90
21906;DHT22;11117;48.644;9.006;2024-03-08T00:23:38;2.80;99.90
21906;DHT22;11117;48.644;9.006;2024-03-08T00:26:03;2.90;99.90
21906;DHT22;11117;48.644;9.006;2024-03-08T00:28:29;2.80;99.90
21906;DHT22;11117;48.644;9.006;2024-03-08T00:30:55;2.80;99.90
21906;DHT22;11117;48.644;9.006;2024-03-08T00:33:20;2.80;99.90
21906;DHT22;11117;48.644;9.006;2024-03-08T00:35:46;2.80;99.90
21906;DHT22;11117;48.644;9.006;2024-03-08T00:38:11;2.80;99.90
21906;DHT22;11117;48.644;9.006;2024-03-08T00:40:37;2.70;99.90
21906;DHT22;11117;48.644;9.006;2024-03-08T00:43:02;2.70;99.90
21906;DHT22;11117;48.644;9.006;2024-03-08T00:45:28;2.70;99.90
21906;DHT22;11117;48.644;9.006;2024-03-08T00:47:54;2.70;99.90
21906;DHT22;11117;48.644;9.006;2024-03-08T00:50:19;2.70;99.90
21906;DHT22;11117;48.644;9.006;2024-03-08T00:52:45;2.60;99.90
21906;DHT22;11117;48.644;9.006;2024-03-08T00:55:10;2.60;99.90
21906;DHT22;11117;48.644;9.006;2024-03-08T00:57:36;2.60;99.90
21906;DHT22;11117;48.644;9.006;2024-03-08T01:00:03;2.50;99.90
21906;DHT22;11117;48.644;9.006;2024-03-08T01:02:29;2.50;99.90
21906;DHT22;11117;48.644;9.006;2024-03-08T01:04:54;2.60;99.90
21906;DHT22;11117;48.644;9.006;2024-03-08T01:07:24;2.50;99.90
21906;DHT22;11117;48.644;9.006;2024-03-08T01:09:49;2.50;99.90
21906;DHT22;11117;48.644;9.006;2024-03-08T01:12:15;2.50;99.90
21906;DHT22;11117;48.644;9.006;2024-03-08T01:14:40;2.40;99.90
21906;DHT22;11117;48.644;9.006;2024-03-08T01:17:06;2.40;99.90
21906;DHT22;11117;48.644;9.006;2024-03-08T01:19:31;2.40;99.90
21906;DHT22;11117;48.644;9.006;2024-03-08T01:21:57;2.30;99.90
21906;DHT22;11117;48.644;9.006;2024-03-08T01:24:22;2.20;99.90
21906;DHT22;11117;48.644;9.006;2024-03-08T01:26:48;2.20;99.90
21906;DHT22;11117;48.644;9.006;2024-03-08T01:29:14;2.20;99.90
21906;DHT22;11117;48.644;9.006;2024-03-08T01:31:39;2.20;99.90
21906;DHT22;11117;48.644;9.006;2024-03-08T01:34:05;2.20;99.90
21906;DHT22;11117;48.644;9.006;2024-03-08T01:36:30;2.10;99.90
21906;DHT22;11117;48.644;9.006;2024-03-08T01:38:56;2.10;99.90
21906;DHT22;11117;48.644;9.006;2024-03-08T01:41:21;2.20;99.90
21906;DHT22;11117;48.644;9.006;2024-03-08T01:43:47;2.10;99.90
21906;DHT22;11117;48.644;9.006;2024-03-08T01:46:15;2.00;99.90
21906;DHT22;11117;48.644;9.006;2024-03-08T01:48:42;2.10;99.90
21906;DHT22;11117;48.644;9.006;2024-03-08T01:51:08;2.10;99.90
21906;DHT22;11117;48.644;9.006;2024-03-08T01:53:35;2.10;99.90
21906;DHT22;11117;48.644;9.006;2024-03-08T01:56:02;2.00;99.90
21906;DHT22;11117;48.644;9.006;2024-03-08T01:58:28;2.10;99.90
21906;DHT22;11117;48.644;9.006;2024-03-08T02:00:56;2.00;99.90
21906;DHT22;11117;48.644;9.006;2024-03-08T02:03:22;2.00;99.90
21906;DHT22;11117;48.644;9.006;2024-03-08T02:05:47;2.10;99.90
21906;DHT22;11117;48.644;9.006;2024-03-08T02:08:13;2.00;99.90
21906;DHT22;11117;48.644;9.006;2024-03-08T02:10:39;2.00;99.90
21906;DHT22;11117;48.644;9.006;2024-03-08T02:13:05;1.90;99.90
21906;DHT22;11117;48.644;9.006;2024-03-08T02:16:03;1.90;99.90
21906;DHT22;11117;48.644;9.006;2024-03-08T02:18:29;1.80;99.90
21906;DHT22;11117;48.644;9.006;2024-03-08T02:20:56;1.80;99.90
21906;DHT22;11117;48.644;9.006;2024-03-08T02:23:22;1.80;99.90
21906;DHT22;11117;48.644;9.006;2024-03-08T02:25:48;1.80;99.90
21906;DHT22;11117;48.644;9.006;2024-03-08T02:28:14;1.80;99.90
21906;DHT22;11117;48.644;9.006;2024-03-08T02:30:40;1.80;99.90
21906;DHT22;11117;48.644;9.006;2024-03-08T02:33:06;1.70;99.90
21906;DHT22;11117;48.644;9.006;2024-03-08T02:35:32;1.70;99.90
21906;DHT22;11117;48.644;9.006;2024-03-08T02:37:59;1.70;99.90
21906;DHT22;11117;48.644;9.006;2024-03-08T02:40:24;1.70;99.90
21906;DHT22;11117;48.644;9.006;2024-03-08T02:42:50;1.70;99.90
21906;DHT22;11117;48.644;9.006;2024-03-08T02:45:15;1.70;99.90
21906;DHT22;11117;48.644;9.006;2024-03-08T02:47:41;1.70;99.90
21906;DHT22;11117;48.644;9.006;2024-03-08T02:50:07;1.70;99.90
21906;DHT22;11117;48.644;9.006;2024-03-08T02:52:32;1.70;99.90
21906;DHT22;11117;48.644;9.006;2024-03-08T02:54:58;1.70;99.90
21906;DHT22;11117;48.644;9.006;2024-03-08T02:57:24;1.60;99.90
21906;DHT22;11117;48.644;9.006;2024-03-08T02:59:49;1.70;99.90
21906;DHT22;11117;48.644;9.006;2024-03-08T03:02:15;1.70;99.90
21906;DHT22;11117;48.644;9.006;2024-03-08T03:04:40;1.70;99.90
21906;DHT22;11117;48.644;9.006;2024-03-08T03:07:06;1.70;99.90
21906;DHT22;11117;48.644;9.006;2024-03-08T03:09:31;1.60;99.90
21906;DHT22;11117;48.644;9.006;2024-03-08T03:11:57;1.60;99.90
21906;DHT22;11117;48.644;9.006;2024-03-08T03:14:23;1.50;99.90
21906;DHT22;11117;48.644;9.006;2024-03-08T03:16:48;1.50;99.90
21906;DHT22;11117;48.644;9.006;2024-03-08T03:19:14;1.40;99.90
21906;DHT22;11117;48.644;9.006;2024-03-08T03:21:39;1.40;99.90
21906;DHT22;11117;48.644;9.006;2024-03-08T03:24:05;1.40;99.90
21906;DHT22;11117;48.644;9.006;2024-03-08T03:26:31;1.40;99.90
21906;DHT22;11117;48.644;9.006;2024-03-08T03:28:56;1.40;99.90
21906;DHT22;11117;48.644;9.006;2024-03-08T03:31:22;1.40;99.90
21906;DHT22;11117;48.644;9.006;2024-03-08T03:33:48;1.40;99.90
21906;DHT22;11117;48.644;9.006;2024-03-08T03:36:13;1.40;99.90
21906;DHT22;11117;48.644;9.006;2024-03-08T03:38:39;1.30;99.90
21906;DHT22;11117;48.644;9.006;2024-03-08T03:41:04;1.40;99.90
21906;DHT22;11117;48.644;9.006;2024-03-08T03:43:30;1.40;99.90
21906;DHT22;11117;48.644;9.006;2024-03-08T03:45:55;1.40;99.90
21906;DHT22;11117;48.644;9.006;2024-03-08T03:48:21;1.40;99.90
21906;DHT22;11117;48.644;9.006;2024-03-08T03:50:46;1.40;99.90
21906;DHT22;11117;48.644;9.006;2024-03-08T03:53:12;1.30;99.90
21906;DHT22;11117;48.644;9.006;2024-03-08T03:55:38;1.40;99.90
21906;DHT22;11117;48.644;9.006;2024-03-08T03:58:03;1.40;99.90
21906;DHT22;11117;48.644;9.006;2024-03-08T04:00:29;1.30;99.90
21906;DHT22;11117;48.644;9.006;2024-03-08T04:02:55;1.30;99.90
21906;DHT22;11117;48.644;9.006;2024-03-08T04:05:20;1.30;99.90
21906;DHT22;11117;48.644;9.006;2024-03-08T04:07:46;1.30;99.90
21906;DHT22;11117;48.644;9.006;2024-03-08T04:10:12;1.20;99.90
21906;DHT22;11117;48.644;9.006;2024-03-08T04:12:37;1.20;99.90
21906;DHT22;11117;48.644;9.006;2024-03-08T04:15:03;1.20;99.90
21906;DHT22;11117;48.644;9.006;2024-03-08T04:17:29;1.10;99.90
21906;DHT22;11117;48.644;9.006;2024-03-08T04:19:54;1.10;99.90
21906;DHT22;11117;48.644;9.006;2024-03-08T04:22:24;1.10;99.90
21906;DHT22;11117;48.644;9.006;2024-03-08T04:24:49;1.10;99.90
21906;DHT22;11117;48.644;9.006;2024-03-08T04:27:15;1.20;99.90
21906;DHT22;11117;48.644;9.006;2024-03-08T04:29:40;1.10;99.90
21906;DHT22;11117;48.644;9.006;2024-03-08T04:32:06;1.10;99.90
21906;DHT22;11117;48.644;9.006;2024-03-08T04:34:32;1.00;99.90
21906;DHT22;11117;48.644;9.006;2024-03-08T04:36:58;1.10;99.90
21906;DHT22;11117;48.644;9.006;2024-03-08T04:39:24;1.10;99.90
21906;DHT22;11117;48.644;9.006;2024-03-08T04:41:50;1.10;99.90
21906;DHT22;11117;48.644;9.006;2024-03-08T04:44:16;1.10;99.90
21906;DHT22;11117;48.644;9.006;2024-03-08T04:46:42;1.10;99.90
21906;DHT22;11117;48.644;9.006;2024-03-08T04:49:08;1.10;99.90
21906;DHT22;11117;48.644;9.006;2024-03-08T04:51:33;1.10;99.90
21906;DHT22;11117;48.644;9.006;2024-03-08T04:53:59;1.10;99.90
21906;DHT22;11117;48.644;9.006;2024-03-08T04:56:24;1.10;99.90
21906;DHT22;11117;48.644;9.006;2024-03-08T04:58:50;1.10;99.90
21906;DHT22;11117;48.644;9.006;2024-03-08T05:01:16;1.10;99.90
21906;DHT22;11117;48.644;9.006;2024-03-08T05:03:41;1.10;99.90
21906;DHT22;11117;48.644;9.006;2024-03-08T05:06:07;1.10;99.90
21906;DHT22;11117;48.644;9.006;2024-03-08T05:08:32;1.10;99.90
21906;DHT22;11117;48.644;9.006;2024-03-08T05:10:58;1.10;99.90
21906;DHT22;11117;48.644;9.006;2024-03-08T05:13:23;1.00;99.90
21906;DHT22;11117;48.644;9.006;2024-03-08T05:15:49;1.00;99.90
21906;DHT22;11117;48.644;9.006;2024-03-08T05:18:15;0.90;99.90
21906;DHT22;11117;48.644;9.006;2024-03-08T05:20:41;0.90;99.90
21906;DHT22;11117;48.644;9.006;2024-03-08T05:23:06;0.90;99.90
21906;DHT22;11117;48.644;9.006;2024-03-08T05:25:32;0.90;99.90
21906;DHT22;11117;48.644;9.006;2024-03-08T05:27:58;0.90;99.90
21906;DHT22;11117;48.644;9.006;2024-03-08T05:30:23;1.00;99.90
21906;DHT22;11117;48.644;9.006;2024-03-08T05:32:49;1.10;99.90
21906;DHT22;11117;48.644;9.006;2024-03-08T05:35:14;1.00;99.90
21906;DHT22;11117;48.644;9.006;2024-03-08T05:37:40;1.10;99.90
21906;DHT22;11117;48.644;9.006;2024-03-08T05:40:06;1.00;99.90
21906;DHT22;11117;48.644;9.006;2024-03-08T05:42:32;1.00;99.90
21906;DHT22;11117;48.644;9.006;2024-03-08T05:44:57;1.00;99.90
21906;DHT22;11117;48.644;9.006;2024-03-08T05:47:23;1.00;99.90
21906;DHT22;11117;48.644;9.006;2024-03-08T05:49:49;0.90;99.90
21906;DHT22;11117;48.644;9.006;2024-03-08T05:52:14;0.90;99.90
21906;DHT22;11117;48.644;9.006;2024-03-08T05:54:40;0.90;99.90
21906;DHT22;11117;48.644;9.006;2024-03-08T05:57:05;1.00;99.90
21906;DHT22;11117;48.644;9.006;2024-03-08T05:59:31;1.00;99.90
21906;DHT22;11117;48.644;9.006;2024-03-08T06:01:56;1.10;99.90
21906;DHT22;11117;48.644;9.006;2024-03-08T06:04:22;1.20;99.90
21906;DHT22;11117;48.644;9.006;2024-03-08T06:06:47;1.30;99.90
21906;DHT22;11117;48.644;9.006;2024-03-08T06:09:13;1.40;99.90
21906;DHT22;11117;48.644;9.006;2024-03-08T06:11:39;1.50;99.90
21906;DHT22;11117;48.644;9.006;2024-03-08T06:14:04;1.60;99.90
21906;DHT22;11117;48.644;9.006;2024-03-08T06:16:30;1.70;99.90
21906;DHT22;11117;48.644;9.006;2024-03-08T06:18:56;1.80;99.90
21906;DHT22;11117;48.644;9.006;2024-03-08T06:21:22;1.90;99.90
21906;DHT22;11117;48.644;9.006;2024-03-08T06:23:47;2.10;99.90
21906;DHT22;11117;48.644;9.006;2024-03-08T06:26:13;2.20;99.90
21906;DHT22;11117;48.644;9.006;2024-03-08T06:28:38;2.30;99.90
21906;DHT22;11117;48.644;9.006;2024-03-08T06:31:04;2.40;99.90
21906;DHT22;11117;48.644;9.006;2024-03-08T06:33:30;2.50;99.90
21906;DHT22;11117;48.644;9.006;2024-03-08T06:35:56;2.60;99.90
21906;DHT22;11117;48.644;9.006;2024-03-08T06:38:21;2.70;99.90
21906;DHT22;11117;48.644;9.006;2024-03-08T06:40:47;2.80;99.90
21906;DHT22;11117;48.644;9.006;2024-03-08T06:43:13;2.80;99.90
21906;DHT22;11117;48.644;9.006;2024-03-08T06:45:38;2.90;99.90
21906;DHT22;11117;48.644;9.006;2024-03-08T06:48:04;2.90;99.90
21906;DHT22;11117;48.644;9.006;2024-03-08T06:50:30;3.00;99.90
21906;DHT22;11117;48.644;9.006;2024-03-08T06:52:55;3.10;99.90
21906;DHT22;11117;48.644;9.006;2024-03-08T06:55:21;3.20;99.90
21906;DHT22;11117;48.644;9.006;2024-03-08T06:57:46;3.30;99.90
21906;DHT22;11117;48.644;9.006;2024-03-08T07:00:12;3.30;99.90
21906;DHT22;11117;48.644;9.006;2024-03-08T07:02:38;3.40;99.90
21906;DHT22;11117;48.644;9.006;2024-03-08T07:05:04;3.50;99.90
21906;DHT22;11117;48.644;9.006;2024-03-08T07:07:29;3.60;99.90
21906;DHT22;11117;48.644;9.006;2024-03-08T07:09:55;3.60;99.90
21906;DHT22;11117;48.644;9.006;2024-03-08T07:12:23;3.80;99.90
21906;DHT22;11117;48.644;9.006;2024-03-08T07:14:49;3.80;99.90
21906;DHT22;11117;48.644;9.006;2024-03-08T07:17:15;3.90;99.90
21906;DHT22;11117;48.644;9.006;2024-03-08T07:19:40;4.00;99.90
21906;DHT22;11117;48.644;9.006;2024-03-08T07:22:06;4.10;99.90
21906;DHT22;11117;48.644;9.006;2024-03-08T07:24:31;4.10;99.90
21906;DHT22;11117;48.644;9.006;2024-03-08T07:26:57;4.10;99.90
21906;DHT22;11117;48.644;9.006;2024-03-08T07:29:22;4.10;99.90
21906;DHT22;11117;48.644;9.006;2024-03-08T07:31:48;4.20;99.90
21906;DHT22;11117;48.644;9.006;2024-03-08T07:34:13;4.30;99.90
21906;DHT22;11117;48.644;9.006;2024-03-08T07:36:39;4.40;99.90
21906;DHT22;11117;48.644;9.006;2024-03-08T07:39:04;4.50;99.90
21906;DHT22;11117;48.644;9.006;2024-03-08T07:41:30;4.50;99.90
21906;DHT22;11117;48.644;9.006;2024-03-08T07:43:56;4.70;99.90
21906;DHT22;11117;48.644;9.006;2024-03-08T07:46:21;4.80;99.90
21906;DHT22;11117;48.644;9.006;2024-03-08T07:48:47;4.90;99.90
21906;DHT22;11117;48.644;9.006;2024-03-08T07:51:12;4.90;99.90
21906;DHT22;11117;48.644;9.006;2024-03-08T07:53:40;5.00;99.90
21906;DHT22;11117;48.644;9.006;2024-03-08T07:56:06;5.10;99.90
21906;DHT22;11117;48.644;9.006;2024-03-08T07:58:32;5.10;99.90
21906;DHT22;11117;48.644;9.006;2024-03-08T08:00:57;5.10;99.90
21906;DHT22;11117;48.644;9.006;2024-03-08T08:03:23;5.20;99.90
21906;DHT22;11117;48.644;9.006;2024-03-08T08:05:48;5.30;99.90
21906;DHT22;11117;48.644;9.006;2024-03-08T08:08:14;5.40;99.90
21906;DHT22;11117;48.644;9.006;2024-03-08T08:10:39;5.50;99.90
21906;DHT22;11117;48.644;9.006;2024-03-08T08:13:05;5.60;99.90
21906;DHT22;11117;48.644;9.006;2024-03-08T08:15:31;5.70;99.90
21906;DHT22;11117;48.644;9.006;2024-03-08T08:17:56;5.70;99.90
21906;DHT22;11117;48.644;9.006;2024-03-08T08:20:22;5.80;99.90
21906;DHT22;11117;48.644;9.006;2024-03-08T08:22:47;5.90;99.90
21906;DHT22;11117;48.644;9.006;2024-03-08T08:25:13;6.00;99.90
21906;DHT22;11117;48.644;9.006;2024-03-08T08:27:39;6.10;99.90
21906;DHT22;11117;48.644;9.006;2024-03-08T08:30:05;6.20;99.90
21906;DHT22;11117;48.644;9.006;2024-03-08T08:32:30;6.30;99.90
21906;DHT22;11117;48.644;9.006;2024-03-08T08:34:57;6.40;99.90
21906;DHT22;11117;48.644;9.006;2024-03-08T08:37:23;6.50;99.90
21906;DHT22;11117;48.644;9.006;2024-03-08T08:39:49;6.60;99.90
21906;DHT22;11117;48.644;9.006;2024-03-08T08:42:14;6.60;99.90
21906;DHT22;11117;48.644;9.006;2024-03-08T08:44:40;6.70;99.90
21906;DHT22;11117;48.644;9.006;2024-03-08T08:47:05;6.80;99.90
21906;DHT22;11117;48.644;9.006;2024-03-08T08:49:31;6.90;99.90
21906;DHT22;11117;48.644;9.006;2024-03-08T08:51:56;6.90;99.90
21906;DHT22;11117;48.644;9.006;2024-03-08T08:54:22;6.90;99.90
21906;DHT22;11117;48.644;9.006;2024-03-08T08:56:48;6.80;99.90
21906;DHT22;11117;48.644;9.006;2024-03-08T08:59:13;6.90;99.90
21906;DHT22;11117;48.644;9.006;2024-03-08T09:01:39;7.00;99.90
21906;DHT22;11117;48.644;9.006;2024-03-08T09:04:05;7.10;99.90
21906;DHT22;11117;48.644;9.006;2024-03-08T09:06:30;7.20;99.90
21906;DHT22;11117;48.644;9.006;2024-03-08T09:08:56;7.20;99.90
21906;DHT22;11117;48.644;9.006;2024-03-08T09:11:21;7.30;99.90
21906;DHT22;11117;48.644;9.006;2024-03-08T09:13:47;7.40;99.90
21906;DHT22;11117;48.644;9.006;2024-03-08T09:16:12;7.40;99.90
21906;DHT22;11117;48.644;9.006;2024-03-08T09:18:38;7.50;99.90
21906;DHT22;11117;48.644;9.006;2024-03-08T09:21:04;7.40;99.90
21906;DHT22;11117;48.644;9.006;2024-03-08T09:23:29;7.40;99.90
21906;DHT22;11117;48.644;9.006;2024-03-08T09:25:55;7.40;99.90
21906;DHT22;11117;48.644;9.006;2024-03-08T09:28:21;7.50;99.90
21906;DHT22;11117;48.644;9.006;2024-03-08T09:30:47;7.50;99.90
21906;DHT22;11117;48.644;9.006;2024-03-08T09:33:12;7.40;99.90
21906;DHT22;11117;48.644;9.006;2024-03-08T09:35:38;7.50;99.90
21906;DHT22;11117;48.644;9.006;2024-03-08T09:38:03;7.30;99.90
21906;DHT22;11117;48.644;9.006;2024-03-08T09:40:29;7.30;99.90
21906;DHT22;11117;48.644;9.006;2024-03-08T09:42:55;7.30;99.90
21906;DHT22;11117;48.644;9.006;2024-03-08T09:45:21;7.30;99.90
21906;DHT22;11117;48.644;9.006;2024-03-08T09:47:46;7.40;99.90
21906;DHT22;11117;48.644;9.006;2024-03-08T09:50:12;7.60;99.90
21906;DHT22;11117;48.644;9.006;2024-03-08T09:52:40;7.70;99.90
21906;DHT22;11117;48.644;9.006;2024-03-08T09:55:07;7.80;99.90
21906;DHT22;11117;48.644;9.006;2024-03-08T09:57:33;7.70;99.90
21906;DHT22;11117;48.644;9.006;2024-03-08T10:00:01;7.80;99.90
21906;DHT22;11117;48.644;9.006;2024-03-08T10:02:27;7.90;99.90
21906;DHT22;11117;48.644;9.006;2024-03-08T10:04:54;8.00;99.90
21906;DHT22;11117;48.644;9.006;2024-03-08T10:07:23;8.10;99.90
21906;DHT22;11117;48.644;9.006;2024-03-08T10:09:51;8.20;99.90
21906;DHT22;11117;48.644;9.006;2024-03-08T10:12:19;8.10;99.90
21906;DHT22;11117;48.644;9.006;2024-03-08T10:14:45;8.10;99.90
21906;DHT22;11117;48.644;9.006;2024-03-08T10:17:11;8.20;99.90
21906;DHT22;11117;48.644;9.006;2024-03-08T10:19:37;8.30;99.90
21906;DHT22;11117;48.644;9.006;2024-03-08T10:22:02;8.40;99.90
21906;DHT22;11117;48.644;9.006;2024-03-08T10:24:28;8.60;99.90
21906;DHT22;11117;48.644;9.006;2024-03-08T10:27:00;8.60;99.90
21906;DHT22;11117;48.644;9.006;2024-03-08T10:29:26;8.70;99.90
21906;DHT22;11117;48.644;9.006;2024-03-08T10:31:51;8.50;99.90
21906;DHT22;11117;48.644;9.006;2024-03-08T10:34:17;8.40;99.90
21906;DHT22;11117;48.644;9.006;2024-03-08T10:36:43;8.40;99.90
21906;DHT22;11117;48.644;9.006;2024-03-08T10:39:31;8.60;99.90
21906;DHT22;11117;48.644;9.006;2024-03-08T10:42:02;8.70;99.90
21906;DHT22;11117;48.644;9.006;2024-03-08T10:49:55;9.00;99.90
21906;DHT22;11117;48.644;9.006;2024-03-08T10:52:23;9.10;99.90
21906;DHT22;11117;48.644;9.006;2024-03-08T10:54:49;9.20;99.90
21906;DHT22;11117;48.644;9.006;2024-03-08T10:57:18;9.40;99.90
21906;DHT22;11117;48.644;9.006;2024-03-08T10:59:45;9.40;99.90
21906;DHT22;11117;48.644;9.006;2024-03-08T11:02:12;9.40;99.90
21906;DHT22;11117;48.644;9.006;2024-03-08T11:04:38;9.70;99.90
21906;DHT22;11117;48.644;9.006;2024-03-08T11:07:04;9.80;99.90
21906;DHT22;11117;48.644;9.006;2024-03-08T11:09:35;9.80;99.90
21906;DHT22;11117;48.644;9.006;2024-03-08T11:14:50;9.80;99.90
21906;DHT22;11117;48.644;9.006;2024-03-08T11:17:40;10.00;99.90
21906;DHT22;11117;48.644;9.006;2024-03-08T11:20:16;10.10;99.90
21906;DHT22;11117;48.644;9.006;2024-03-08T11:22:48;10.20;99.90
21906;DHT22;11117;48.644;9.006;2024-03-08T11:25:34;10.40;99.90
21906;DHT22;11117;48.644;9.006;2024-03-08T11:28:14;10.30;99.90
21906;DHT22;11117;48.644;9.006;2024-03-08T11:30:42;10.10;99.90
21906;DHT22;11117;48.644;9.006;2024-03-08T11:33:11;10.20;99.90
21906;DHT22;11117;48.644;9.006;2024-03-08T11:35:37;10.10;99.90
21906;DHT22;11117;48.644;9.006;2024-03-08T11:38:04;9.90;99.90
21906;DHT22;11117;48.644;9.006;2024-03-08T11:40:29;10.00;99.90
21906;DHT22;11117;48.644;9.006;2024-03-08T11:42:55;9.80;99.90
21906;DHT22;11117;48.644;9.006;2024-03-08T11:45:21;9.90;99.90
21906;DHT22;11117;48.644;9.006;2024-03-08T11:47:47;9.70;99.90
21906;DHT22;11117;48.644;9.006;2024-03-08T11:50:14;9.80;99.90
21906;DHT22;11117;48.644;9.006;2024-03-08T11:52:40;9.90;99.90
21906;DHT22;11117;48.644;9.006;2024-03-08T11:55:06;9.90;99.90
21906;DHT22;11117;48.644;9.006;2024-03-08T11:57:32;10.20;99.90
21906;DHT22;11117;48.644;9.006;2024-03-08T11:59:58;10.10;99.90
21906;DHT22;11117;48.644;9.006;2024-03-08T12:02:25;10.20;99.90
21906;DHT22;11117;48.644;9.006;2024-03-08T12:05:00;10.10;99.90
21906;DHT22;11117;48.644;9.006;2024-03-08T12:07:26;10.40;99.90
21906;DHT22;11117;48.644;9.006;2024-03-08T12:10:20;10.50;99.90
21906;DHT22;11117;48.644;9.006;2024-03-08T12:12:48;10.50;99.90
21906;DHT22;11117;48.644;9.006;2024-03-08T12:15:15;10.50;99.90
21906;DHT22;11117;48.644;9.006;2024-03-08T12:17:41;10.50;99.90
21906;DHT22;11117;48.644;9.006;2024-03-08T12:20:18;10.50;99.90
21906;DHT22;11117;48.644;9.006;2024-03-08T12:22:45;10.50;99.90
21906;DHT22;11117;48.644;9.006;2024-03-08T12:25:11;10.20;99.90
21906;DHT22;11117;48.644;9.006;2024-03-08T12:27:41;10.40;99.90
21906;DHT22;11117;48.644;9.006;2024-03-08T12:30:21;10.50;99.90
21906;DHT22;11117;48.644;9.006;2024-03-08T12:32:58;10.20;99.90
21906;DHT22;11117;48.644;9.006;2024-03-08T12:35:25;10.20;99.90
21906;DHT22;11117;48.644;9.006;2024-03-08T12:37:53;10.20;99.90
21906;DHT22;11117;48.644;9.006;2024-03-08T12:40:19;10.10;99.90
21906;DHT22;11117;48.644;9.006;2024-03-08T12:42:50;10.10;99.90
21906;DHT22;11117;48.644;9.006;2024-03-08T12:45:16;10.00;99.90
21906;DHT22;11117;48.644;9.006;2024-03-08T12:47:41;10.00;99.90
21906;DHT22;11117;48.644;9.006;2024-03-08T12:50:08;10.00;99.90
21906;DHT22;11117;48.644;9.006;2024-03-08T12:52:33;9.70;99.90
21906;DHT22;11117;48.644;9.006;2024-03-08T12:54:59;9.70;99.90
21906;DHT22;11117;48.644;9.006;2024-03-08T12:57:24;9.80;99.90
21906;DHT22;11117;48.644;9.006;2024-03-08T12:59:50;9.90;99.90
21906;DHT22;11117;48.644;9.006;2024-03-08T13:02:16;9.90;99.90
21906;DHT22;11117;48.644;9.006;2024-03-08T13:04:41;9.90;99.90
21906;DHT22;11117;48.644;9.006;2024-03-08T13:07:07;10.00;99.90
21906;DHT22;11117;48.644;9.006;2024-03-08T13:09:32;10.00;99.90
21906;DHT22;11117;48.644;9.006;2024-03-08T13:11:58;10.00;99.90
21906;DHT22;11117;48.644;9.006;2024-03-08T13:14:23;9.90;99.90
21906;DHT22;11117;48.644;9.006;2024-03-08T13:16:49;9.90;99.90
21906;DHT22;11117;48.644;9.006;2024-03-08T13:19:14;9.80;99.90
21906;DHT22;11117;48.644;9.006;2024-03-08T13:21:40;9.70;99.90
21906;DHT22;11117;48.644;9.006;2024-03-08T13:24:06;9.80;99.90
21906;DHT22;11117;48.644;9.006;2024-03-08T13:26:31;9.70;99.90
21906;DHT22;11117;48.644;9.006;2024-03-08T13:28:57;9.90;99.90
21906;DHT22;11117;48.644;9.006;2024-03-08T13:31:23;9.70;99.90
21906;DHT22;11117;48.644;9.006;2024-03-08T13:33:48;9.70;99.90
21906;DHT22;11117;48.644;9.006;2024-03-08T13:36:15;9.70;99.90
21906;DHT22;11117;48.644;9.006;2024-03-08T13:38:45;9.80;99.90
21906;DHT22;11117;48.644;9.006;2024-03-08T13:41:11;9.90;99.90
21906;DHT22;11117;48.644;9.006;2024-03-08T13:43:37;9.90;99.90
21906;DHT22;11117;48.644;9.006;2024-03-08T13:46:03;9.80;99.90
21906;DHT22;11117;48.644;9.006;2024-03-08T13:48:29;9.80;99.90
21906;DHT22;11117;48.644;9.006;2024-03-08T13:50:54;9.90;99.90
21906;DHT22;11117;48.644;9.006;2024-03-08T13:53:20;9.90;99.90
21906;DHT22;11117;48.644;9.006;2024-03-08T13:55:46;9.90;99.90
21906;DHT22;11117;48.644;9.006;2024-03-08T13:58:11;9.80;99.90
21906;DHT22;11117;48.644;9.006;2024-03-08T14:00:37;10.00;99.90
21906;DHT22;11117;48.644;9.006;2024-03-08T14:03:02;10.10;99.90
21906;DHT22;11117;48.644;9.006;2024-03-08T14:05:28;10.00;99.90
21906;DHT22;11117;48.644;9.006;2024-03-08T14:07:53;10.10;99.90
21906;DHT22;11117;48.644;9.006;2024-03-08T14:10:19;9.90;99.90
21906;DHT22;11117;48.644;9.006;2024-03-08T14:12:45;9.90;99.90
21906;DHT22;11117;48.644;9.006;2024-03-08T14:15:10;9.90;99.90
21906;DHT22;11117;48.644;9.006;2024-03-08T14:17:36;9.90;99.90
21906;DHT22;11117;48.644;9.006;2024-03-08T14:20:01;9.90;99.90
21906;DHT22;11117;48.644;9.006;2024-03-08T14:22:27;9.90;99.90
21906;DHT22;11117;48.644;9.006;2024-03-08T14:24:52;10.00;99.90
21906;DHT22;11117;48.644;9.006;2024-03-08T14:27:21;9.90;99.90
21906;DHT22;11117;48.644;9.006;2024-03-08T14:29:46;9.90;99.90
21906;DHT22;11117;48.644;9.006;2024-03-08T14:32:12;10.00;99.90
21906;DHT22;11117;48.644;9.006;2024-03-08T14:34:38;9.90;99.90
21906;DHT22;11117;48.644;9.006;2024-03-08T14:37:04;9.90;99.90
21906;DHT22;11117;48.644;9.006;2024-03-08T14:39:29;9.90;99.90
21906;DHT22;11117;48.644;9.006;2024-03-08T14:41:55;9.90;99.90
21906;DHT22;11117;48.644;9.006;2024-03-08T14:44:22;9.70;99.90
21906;DHT22;11117;48.644;9.006;2024-03-08T14:46:47;9.80;99.90
21906;DHT22;11117;48.644;9.006;2024-03-08T14:49:13;9.80;99.90
21906;DHT22;11117;48.644;9.006;2024-03-08T14:51:39;9.70;99.90
21906;DHT22;11117;48.644;9.006;2024-03-08T14:54:04;9.80;99.90
21906;DHT22;11117;48.644;9.006;2024-03-08T14:56:30;9.80;99.90
21906;DHT22;11117;48.644;9.006;2024-03-08T14:58:55;9.80;99.90
21906;DHT22;11117;48.644;9.006;2024-03-08T15:01:21;9.70;99.90
21906;DHT22;11117;48.644;9.006;2024-03-08T15:03:46;9.60;99.90
21906;DHT22;11117;48.644;9.006;2024-03-08T15:06:12;9.60;99.90
21906;DHT22;11117;48.644;9.006;2024-03-08T15:08:38;9.60;99.90
21906;DHT22;11117;48.644;9.006;2024-03-08T15:11:05;9.60;99.90
21906;DHT22;11117;48.644;9.006;2024-03-08T15:13:31;9.70;99.90
21906;DHT22;11117;48.644;9.006;2024-03-08T15:15:57;9.70;99.90
21906;DHT22;11117;48.644;9.006;2024-03-08T15:18:23;9.70;99.90
21906;DHT22;11117;48.644;9.006;2024-03-08T15:20:49;9.70;99.90
21906;DHT22;11117;48.644;9.006;2024-03-08T15:23:14;9.60;99.90
21906;DHT22;11117;48.644;9.006;2024-03-08T15:25:40;9.60;99.90
21906;DHT22;11117;48.644;9.006;2024-03-08T15:28:05;9.40;99.90
21906;DHT22;11117;48.644;9.006;2024-03-08T15:30:31;9.50;99.90
21906;DHT22;11117;48.644;9.006;2024-03-08T15:32:56;9.60;99.90
21906;DHT22;11117;48.644;9.006;2024-03-08T15:35:25;9.60;99.90
21906;DHT22;11117;48.644;9.006;2024-03-08T15:37:51;9.50;99.90
21906;DHT22;11117;48.644;9.006;2024-03-08T15:40:17;9.50;99.90
21906;DHT22;11117;48.644;9.006;2024-03-08T15:42:42;9.50;99.90
21906;DHT22;11117;48.644;9.006;2024-03-08T15:45:08;9.60;99.90
21906;DHT22;11117;48.644;9.006;2024-03-08T15:47:34;9.60;99.90